Terminal Aerodrome Forecast
Issued by NWS Blacksburg, VA

Current Version | Previous Version | Text Only | Print | Product List | Glossary Off
Versions: 1 2 3 4 5 6 7 8 9 10 11 12 13 14 15 16 17 18 19 20 21 22 23 24 25 26

000
FTUS41 KRNK 290526
TAFBLF
TAF
KBLF 290526Z 2906/3006 00000KT P6SM BKN120
     FM291500 VRB03KT 6SM -RA SCT030 OVC070
     FM291700 VRB03KT 6SM -RA BR OVC025
     FM292000 24003KT P6SM BKN035
     FM300100 00000KT 5SM BR SCT035=

USA.gov is the U.S. government's official web portal to all federal, state and local government web resources and services.